| time (UTC) | temp C | wind direction | speed KPH | gust KPH | rain 1hr cm | rain 24hr cm | rain mn cm | humidity % | barometer mb |
| 20260507153043 | 18 | 135 | 14.5 | 16.1 | 0.00 | 0.13 | 0.13 | 20 | 1009.1 |
| 20260507152539 | 19 | 135 | 12.9 | 17.7 | 0.00 | 0.13 | 0.13 | 20 | 1009.1 |
| 20260507152055 | 20 | 180 | 9.7 | 16.1 | 0.00 | 0.13 | 0.13 | 15 | 1009.1 |
| 20260507151530 | 19 | 180 | 6.4 | 14.5 | 0.00 | 0.13 | 0.13 | 21 | 1009.1 |
| 20260507151025 | 19 | 315 | 9.7 | 16.1 | 0.00 | 0.13 | 0.13 | 20 | 1009.2 |
| 20260507150521 | 20 | 202 | 14.5 | 19.3 | 0.00 | 0.13 | 0.13 | 20 | 1009.1 |
| 20260507150015 | 19 | 180 | 8.0 | 9.7 | 0.00 | 0.13 | 0.13 | 20 | 1009.2 |
| 20260507145512 | 19 | 225 | 8.0 | 12.9 | 0.00 | 0.13 | 0.13 | 15 | 1009.3 |
| 20260507144911 | 19 | 180 | 9.7 | 12.9 | 0.00 | 0.13 | 0.13 | 15 | 1009.1 |
| 20260507144325 | 20 | 180 | 6.4 | 9.7 | 0.00 | 0.13 | 0.13 | 15 | 1009.1 |
| 20260507143701 | 20 | 135 | 8.0 | 12.9 | 0.00 | 0.13 | 0.13 | 15 | 1009.3 |
| 20260507143156 | 20 | 180 | 12.9 | 16.1 | 0.00 | 0.13 | 0.13 | 15 | 1009.3 |
| 20260507142712 | 20 | 180 | 9.7 | 11.3 | 0.00 | 0.13 | 0.13 | 15 | 1009.3 |
| 20260507142147 | 20 | 180 | 11.3 | 16.1 | 0.00 | 0.13 | 0.13 | 15 | 1009.3 |
| 20260507141643 | 20 | 135 | 4.8 | 12.9 | 0.00 | 0.13 | 0.13 | 15 | 1009.3 |
| 20260507141138 | 20 | 225 | 14.5 | 16.1 | 0.00 | 0.13 | 0.13 | 15 | 1009.4 |
| 20260507140634 | 20 | 135 | 6.4 | 14.5 | 0.00 | 0.13 | 0.13 | 15 | 1009.5 |
| 20260507140129 | 20 | 135 | 6.4 | 14.5 | 0.00 | 0.13 | 0.13 | 15 | 1009.4 |
| 20260507135625 | 20 | 180 | 9.7 | 14.5 | 0.00 | 0.13 | 0.13 | 15 | 1009.6 |
| 20260507135120 | 20 | 135 | 8.0 | 11.3 | 0.00 | 0.13 | 0.13 | 20 | 1009.6 |
| 20260507134620 | 20 | 180 | 9.7 | 16.1 | 0.00 | 0.13 | 0.13 | 15 | 1009.7 |
| 20260507134011 | 20 | 180 | 11.3 | 17.7 | 0.00 | 0.13 | 0.13 | 20 | 1009.6 |
| 20260507133428 | 20 | 180 | 11.3 | 14.5 | 0.00 | 0.13 | 0.13 | 20 | 1009.9 |
| 20260507132804 | 20 | 180 | 9.7 | 14.5 | 0.00 | 0.13 | 0.13 | 15 | 1009.9 |
| 20260507132301 | 19 | 180 | 17.7 | 24.1 | 0.00 | 0.13 | 0.13 | 20 | 1009.7 |
| 20260507131756 | 20 | 135 | 9.7 | 11.3 | 0.00 | 0.13 | 0.13 | 15 | 1010.1 |
| 20260507131252 | 19 | 225 | 9.7 | 16.1 | 0.00 | 0.13 | 0.13 | 20 | 1010.0 |
| 20260507130747 | 18 | 180 | 14.5 | 17.7 | 0.00 | 0.13 | 0.13 | 20 | 1010.0 |
| 20260507130243 | 19 | 135 | 9.7 | 16.1 | 0.00 | 0.13 | 0.13 | 15 | 1010.2 |
| 20260507125738 | 18 | 135 | 9.7 | 14.5 | 0.00 | 0.13 | 0.13 | 20 | 1010.3 |
| 20260507125233 | 19 | 180 | 6.4 | 11.3 | 0.00 | 0.13 | 0.13 | 21 | 1010.2 |
| 20260507124729 | 19 | 135 | 9.7 | 12.9 | 0.00 | 0.13 | 0.13 | 21 | 1010.2 |
| 20260507124224 | 18 | 180 | 9.7 | 12.9 | 0.00 | 0.13 | 0.13 | 21 | 1010.3 |
| 20260507123720 | 18 | 135 | 1.6 | 4.8 | 0.00 | 0.13 | 0.13 | 22 | 1010.2 |
| 20260507123215 | 18 | 135 | 9.7 | 11.3 | 0.00 | 0.13 | 0.13 | 22 | 1010.3 |
| 20260507122732 | 18 | 90 | 9.7 | 14.5 | 0.00 | 0.13 | 0.13 | 21 | 1010.2 |
| 20260507122108 | 18 | 135 | 9.7 | 14.5 | 0.00 | 0.13 | 0.13 | 21 | 1010.3 |
| 20260507121505 | 18 | 180 | 8.0 | 9.7 | 0.00 | 0.13 | 0.13 | 22 | 1010.2 |
| 20260507120901 | 18 | 225 | 9.7 | 12.9 | 0.00 | 0.13 | 0.13 | 21 | 1010.2 |
| 20260507120416 | 18 | 135 | 3.2 | 6.4 | 0.00 | 0.13 | 0.13 | 24 | 1010.3 |
| 20260507115852 | 18 | 202 | 8.0 | 12.9 | 0.00 | 0.13 | 0.13 | 23 | 1010.4 |
| 20260507115347 | 17 | 180 | 9.7 | 14.5 | 0.00 | 0.13 | 0.13 | 22 | 1010.3 |
| 20260507114842 | 17 | 180 | 11.3 | 14.5 | 0.00 | 0.13 | 0.13 | 23 | 1010.4 |
| 20260507114338 | 17 | 180 | 8.0 | 14.5 | 0.00 | 0.13 | 0.13 | 24 | 1010.5 |
| 20260507113833 | 17 | 135 | 9.7 | 12.9 | 0.00 | 0.13 | 0.13 | 22 | 1010.6 |
| 20260507113329 | 18 | 135 | 9.7 | 11.3 | 0.03 | 0.13 | 0.13 | 22 | 1010.7 |
| 20260507112824 | 18 | 180 | 11.3 | 17.7 | 0.03 | 0.13 | 0.13 | 22 | 1010.6 |
| 20260507112319 | 17 | 135 | 3.2 | 9.7 | 0.03 | 0.13 | 0.13 | 23 | 1010.7 |
| 20260507111815 | 17 | 135 | 4.8 | 9.7 | 0.03 | 0.13 | 0.13 | 23 | 1010.7 |
| 20260507111211 | 17 | 135 | 6.4 | 9.7 | 0.03 | 0.13 | 0.13 | 24 | 1010.6 |
| 20260507110628 | 17 | 157 | 8.0 | 9.7 | 0.03 | 0.13 | 0.13 | 24 | 1010.6 |
| 20260507110005 | 17 | 135 | 8.0 | 12.9 | 0.03 | 0.13 | 0.13 | 28 | 1010.5 |
| 20260507105501 | 17 | 180 | 4.8 | 9.7 | 0.03 | 0.13 | 0.13 | 31 | 1010.5 |
| 20260507105016 | 16 | 135 | 6.4 | 9.7 | 0.03 | 0.13 | 0.13 | 31 | 1010.7 |
| 20260507104452 | 17 | 135 | 6.4 | 8.0 | 0.03 | 0.13 | 0.13 | 31 | 1010.7 |
| 20260507103947 | 17 | 180 | 4.8 | 11.3 | 0.03 | 0.13 | 0.13 | 30 | 1010.5 |
| 20260507103443 | 17 | 180 | 6.4 | 9.7 | 0.00 | 0.10 | 0.10 | 30 | 1010.8 |
| 20260507102938 | 16 | 0.0 | 0.0 | 0.00 | 0.10 | 0.10 | 31 | 1010.8 | |
| 20260507102433 | 16 | 180 | 6.4 | 9.7 | 0.00 | 0.10 | 0.10 | 30 | 1010.8 |
| 20260507101928 | 16 | 90 | 1.6 | 6.4 | 0.00 | 0.10 | 0.10 | 28 | 1010.7 |
| 20260507101444 | 17 | 180 | 8.0 | 11.3 | 0.03 | 0.10 | 0.10 | 26 | 1010.7 |
| 20260507100920 | 17 | 135 | 8.0 | 11.3 | 0.03 | 0.10 | 0.10 | 23 | 1010.5 |
| 20260507100415 | 17 | 180 | 3.2 | 4.8 | 0.03 | 0.10 | 0.10 | 30 | 1011.0 |
| 20260507095912 | 16 | 135 | 6.4 | 9.7 | 0.05 | 0.10 | 0.10 | 30 | 1010.7 |
| 20260507095308 | 16 | 0.0 | 0.0 | 0.05 | 0.10 | 0.10 | 34 | 1010.9 | |
| 20260507094705 | 16 | 180 | 4.8 | 8.0 | 0.08 | 0.10 | 0.10 | 33 | 1011.1 |
| 20260507094121 | 15 | 0.0 | 0.0 | 0.10 | 0.10 | 0.10 | 37 | 1011.0 | |
| 20260507093557 | 15 | 180 | 1.6 | 4.8 | 0.10 | 0.10 | 0.10 | 39 | 1011.2 |
| 20260507093052 | 15 | 180 | 3.2 | 6.4 | 0.10 | 0.10 | 0.10 | 40 | 1011.2 |
| 20260507092548 | 15 | 180 | 4.8 | 8.0 | 0.10 | 0.10 | 0.10 | 41 | 1011.2 |
| 20260507092042 | 14 | 225 | 6.4 | 9.7 | 0.10 | 0.10 | 0.10 | 42 | 1011.0 |
| 20260507091558 | 15 | 180 | 8.0 | 11.3 | 0.08 | 0.08 | 0.08 | 42 | 1011.2 |
| 20260507091033 | 15 | 180 | 3.2 | 4.8 | 0.08 | 0.08 | 0.08 | 43 | 1011.0 |
| 20260507090529 | 14 | 225 | 3.2 | 4.8 | 0.08 | 0.08 | 0.08 | 43 | 1010.9 |
| 20260507090044 | 14 | 0.0 | 0.0 | 0.05 | 0.05 | 0.05 | 42 | 1010.7 | |
| 20260507085519 | 14 | 225 | 1.6 | 3.2 | 0.05 | 0.05 | 0.05 | 42 | 1010.6 |
| 20260507085015 | 14 | 0.0 | 1.6 | 0.03 | 0.03 | 0.03 | 42 | 1010.8 | |
| 20260507084411 | 14 | 180 | 4.8 | 6.4 | 0.03 | 0.03 | 0.03 | 41 | 1010.7 |
| 20260507083808 | 14 | 180 | 3.2 | 4.8 | 0.00 | 0.00 | 0.00 | 41 | 1010.8 |
| 20260507083204 | 14 | 180 | 4.8 | 8.0 | 0.00 | 0.00 | 0.00 | 41 | 1010.8 |
| 20260507082701 | 14 | 180 | 6.4 | 9.7 | 0.00 | 0.00 | 0.00 | 40 | 1010.9 |
| 20260507082156 | 14 | 225 | 8.0 | 9.7 | 0.00 | 0.00 | 0.00 | 39 | 1010.6 |
| 20260507081651 | 14 | 202 | 8.0 | 11.3 | 0.00 | 0.00 | 0.00 | 35 | 1010.6 |
| 20260507081147 | 15 | 202 | 9.7 | 12.9 | 0.00 | 0.00 | 0.00 | 33 | 1010.4 |
| 20260507080642 | 15 | 180 | 8.0 | 11.3 | 0.00 | 0.00 | 0.00 | 30 | 1010.3 |
| 20260507080138 | 15 | 180 | 8.0 | 11.3 | 0.00 | 0.00 | 0.00 | 30 | 1010.3 |
| 20260507075633 | 15 | 180 | 9.7 | 12.9 | 0.00 | 0.00 | 0.00 | 28 | 1010.2 |
| 20260507075129 | 16 | 180 | 9.7 | 14.5 | 0.00 | 0.00 | 0.00 | 24 | 1010.2 |
| 20260507074624 | 16 | 180 | 4.8 | 8.0 | 0.00 | 0.00 | 0.00 | 22 | 1010.0 |
| 20260507074119 | 16 | 202 | 6.4 | 11.3 | 0.00 | 0.00 | 0.00 | 22 | 1009.9 |
| 20260507073635 | 16 | 225 | 11.3 | 16.1 | 0.00 | 0.00 | 0.00 | 20 | 1009.7 |
| 20260507073012 | 16 | 180 | 12.9 | 16.1 | 0.00 | 0.00 | 0.00 | 20 | 1009.7 |
| 20260507072408 | 16 | 180 | 9.7 | 12.9 | 0.00 | 0.00 | 0.00 | 22 | 1009.6 |
| 20260507071825 | 16 | 180 | 12.9 | 14.5 | 0.00 | 0.00 | 0.00 | 22 | 1009.5 |
| 20260507071202 | 16 | 180 | 9.7 | 11.3 | 0.00 | 0.00 | 0.00 | 22 | 1009.7 |
| 20260507070758 | 16 | 180 | 11.3 | 19.3 | 0.00 | 0.00 | 0.00 | 22 | 1009.5 |
| 20260507070253 | 16 | 180 | 8.0 | 9.7 | 0.00 | 0.00 | 0.00 | 22 | 1009.5 |
| 20260507065749 | 16 | 202 | 6.4 | 9.7 | 0.00 | 0.00 | 0.00 | 24 | 1009.5 |
| 20260507065245 | 15 | 180 | 9.7 | 14.5 | 0.00 | 0.00 | 0.00 | 24 | 1009.4 |
| 20260507064800 | 15 | 202 | 8.0 | 11.3 | 0.00 | 0.00 | 0.00 | 24 | 1009.3 |
| 20260507064235 | 15 | 225 | 9.7 | 11.3 | 0.00 | 0.00 | 0.00 | 24 | 1009.4 |
| 20260507063730 | 15 | 180 | 6.4 | 8.0 | 0.00 | 0.00 | 0.00 | 24 | 1009.3 |
| 20260507063306 | 15 | 135 | 6.4 | 9.7 | 0.00 | 0.00 | 0.00 | 24 | 1009.3 |
| 20260507062722 | 15 | 180 | 12.9 | 14.5 | 0.00 | 0.00 | 0.00 | 24 | 1009.4 |
| 20260507062237 | 15 | 0.0 | 0.0 | 0.00 | 0.00 | 0.00 | 26 | 1009.3 | |
| 20260507061713 | 15 | 180 | 3.2 | 4.8 | 0.00 | 0.00 | 0.00 | 26 | 1009.2 |
| 20260507061110 | 15 | 180 | 6.4 | 9.7 | 0.00 | 0.00 | 0.00 | 24 | 1009.4 |
| 20260507060506 | 15 | 180 | 4.8 | 8.0 | 0.00 | 0.00 | 0.00 | 26 | 1009.2 |
| 20260507055903 | 15 | 225 | 8.0 | 9.7 | 0.00 | 0.00 | 0.00 | 26 | 1009.2 |
| 20260507055359 | 15 | 180 | 9.7 | 9.7 | 0.00 | 0.00 | 0.00 | 28 | 1009.1 |
| 20260507054854 | 15 | 180 | 6.4 | 11.3 | 0.00 | 0.00 | 0.00 | 30 | 1009.1 |
| 20260507054349 | 14 | 180 | 4.8 | 8.0 | 0.00 | 0.00 | 0.00 | 30 | 1009.1 |
| 20260507053844 | 14 | 202 | 3.2 | 6.4 | 0.00 | 0.00 | 0.00 | 30 | 1009.1 |
| 20260507053340 | 14 | 0.0 | 0.0 | 0.00 | 0.00 | 0.00 | 30 | 1008.8 | |
| 20260507052836 | 14 | 180 | 4.8 | 6.4 | 0.00 | 0.00 | 0.00 | 30 | 1009.0 |
| 20260507052331 | 14 | 180 | 4.8 | 6.4 | 0.00 | 0.00 | 0.00 | 30 | 1008.8 |
| 20260507051827 | 13 | 0.0 | 0.0 | 0.00 | 0.00 | 0.00 | 30 | 1008.9 | |
| 20260507051322 | 13 | 225 | 8.0 | 9.7 | 0.00 | 0.00 | 0.00 | 30 | 1008.7 |
| 20260507050818 | 13 | 225 | 6.4 | 9.7 | 0.00 | 0.00 | 0.00 | 30 | 1008.8 |
| 20260507050314 | 13 | 202 | 8.0 | 9.7 | 0.00 | 0.00 | 0.00 | 30 | 1008.9 |
| 20260507045710 | 13 | 180 | 1.6 | 3.2 | 0.00 | 0.00 | 0.00 | 30 | 1008.7 |
| 20260507045106 | 13 | 0.0 | 0.0 | 0.00 | 0.00 | 0.00 | 30 | 1008.8 | |
| 20260507044503 | 13 | 0.0 | 0.0 | 0.00 | 0.00 | 0.00 | 30 | 1008.8 | |
| 20260507044100 | 13 | 0.0 | 0.0 | 0.00 | 0.00 | 0.00 | 30 | 1008.6 | |
| 20260507043556 | 13 | 0.0 | 0.0 | 0.00 | 0.00 | 0.00 | 30 | 1008.6 | |
| 20260507043052 | 13 | 0.0 | 0.0 | 0.00 | 0.00 | 0.00 | 30 | 1008.6 | |
| 20260507042547 | 12 | 0.0 | 0.0 | 0.00 | 0.00 | 0.00 | 30 | 1008.4 | |
| 20260507042042 | 12 | 225 | 3.2 | 4.8 | 0.00 | 0.00 | 0.00 | 31 | 1008.6 |
| 20260507041538 | 12 | 0.0 | 0.0 | 0.00 | 0.00 | 0.00 | 31 | 1008.5 | |
| 20260507041053 | 12 | 0.0 | 0.0 | 0.00 | 0.00 | 0.00 | 31 | 1008.6 | |
| 20260507040548 | 12 | 0.0 | 0.0 | 0.00 | 0.00 | 0.00 | 32 | 1008.4 | |
| 20260507040022 | 12 | 0.0 | 0.0 | 0.00 | 0.00 | 0.00 | 32 | 1008.4 | |
| 20260507035518 | 12 | 0.0 | 0.0 | 0.00 | 0.00 | 0.00 | 32 | 1008.4 | |
| 20260507035014 | 12 | 0.0 | 1.6 | 0.00 | 0.00 | 0.00 | 33 | 1008.2 | |
| 20260507034410 | 11 | 180 | 0.0 | 3.2 | 0.00 | 0.00 | 0.00 | 40 | 1008.3 |
| 20260507033807 | 11 | 0.0 | 0.0 | 0.00 | 0.00 | 0.00 | 40 | 1008.3 | |
| 20260507033203 | 11 | 0.0 | 0.0 | 0.00 | 0.00 | 0.00 | 40 | 1008.2 | |
| 20260507032659 | 11 | 0.0 | 0.0 | 0.00 | 0.00 | 0.00 | 39 | 1008.3 | |
| 20260507032215 | 11 | 0.0 | 0.0 | 0.00 | 0.00 | 0.00 | 39 | 1008.1 | |
| 20260507031730 | 11 | 0.0 | 0.0 | 0.00 | 0.00 | 0.00 | 38 | 1008.0 | |
| 20260507031145 | 11 | 0.0 | 0.0 | 0.00 | 0.00 | 0.00 | 36 | 1008.1 | |
| 20260507030641 | 11 | 0.0 | 0.0 | 0.00 | 0.00 | 0.00 | 35 | 1008.1 | |
| 20260507030136 | 12 | 0.0 | 0.0 | 0.00 | 0.00 | 0.00 | 34 | 1008.0 | |
| 20260507025632 | 12 | 0.0 | 0.0 | 0.00 | 0.00 | 0.00 | 32 | 1008.1 | |
| 20260507025127 | 12 | 0.0 | 0.0 | 0.00 | 0.00 | 0.00 | 32 | 1008.0 | |
| 20260507024622 | 12 | 0.0 | 0.0 | 0.00 | 0.00 | 0.00 | 32 | 1007.6 | |
| 20260507024118 | 12 | 0.0 | 0.0 | 0.00 | 0.00 | 0.00 | 33 | 1008.0 | |
| 20260507023614 | 12 | 0.0 | 0.0 | 0.00 | 0.00 | 0.00 | 37 | 1007.9 | |
| 20260507023010 | 12 | 0.0 | 0.0 | 0.00 | 0.00 | 0.00 | 36 | 1008.0 | |
| 20260507022407 | 12 | 0.0 | 0.0 | 0.00 | 0.00 | 0.00 | 37 | 1007.9 | |
| 20260507021803 | 11 | 0.0 | 0.0 | 0.00 | 0.00 | 0.00 | 38 | 1007.9 | |
| 20260507021259 | 11 | 0.0 | 0.0 | 0.00 | 0.00 | 0.00 | 38 | 1007.9 | |
| 20260507020755 | 11 | 0.0 | 0.0 | 0.00 | 0.00 | 0.00 | 37 | 1007.7 | |
| 20260507020411 | 12 | 0.0 | 0.0 | 0.00 | 0.00 | 0.00 | 35 | 1007.5 | |
| 20260507015745 | 12 | 0.0 | 0.0 | 0.00 | 0.00 | 0.00 | 34 | 1007.6 | |
| 20260507015241 | 12 | 0.0 | 0.0 | 0.00 | 0.00 | 0.00 | 31 | 1007.7 | |
| 20260507014736 | 12 | 0.0 | 0.0 | 0.00 | 0.00 | 0.00 | 31 | 1007.7 | |
| 20260507014252 | 12 | 0.0 | 0.0 | 0.00 | 0.00 | 0.00 | 31 | 1007.9 | |
| 20260507013757 | 12 | 0.0 | 0.0 | 0.00 | 0.00 | 0.00 | 30 | 1008.0 | |
| 20260507013252 | 12 | 0.0 | 0.0 | 0.00 | 0.00 | 0.00 | 30 | 1008.0 | |
| 20260507012748 | 12 | 0.0 | 0.0 | 0.00 | 0.00 | 0.00 | 30 | 1007.9 | |
| 20260507012243 | 13 | 0.0 | 0.0 | 0.00 | 0.00 | 0.00 | 30 | 1008.0 | |
| 20260507011739 | 13 | 0.0 | 0.0 | 0.00 | 0.00 | 0.00 | 28 | 1008.0 | |
| 20260507011234 | 13 | 0.0 | 0.0 | 0.00 | 0.00 | 0.00 | 28 | 1007.9 | |
| 20260507010729 | 13 | 0.0 | 0.0 | 0.00 | 0.00 | 0.00 | 28 | 1007.9 | |
| 20260507010225 | 13 | 180 | 6.4 | 9.7 | 0.00 | 0.00 | 0.00 | 28 | 1007.9 |
| 20260507005720 | 13 | 0.0 | 0.0 | 0.00 | 0.00 | 0.00 | 28 | 1007.9 | |
| 20260507005235 | 13 | 180 | 1.6 | 4.8 | 0.00 | 0.00 | 0.00 | 28 | 1008.3 |
| 20260507004612 | 13 | 0.0 | 1.6 | 0.00 | 0.00 | 0.00 | 30 | 1008.2 | |
| 20260507004008 | 13 | 0.0 | 0.0 | 0.00 | 0.00 | 0.00 | 30 | 1008.3 | |
| 20260507003424 | 13 | 0.0 | 0.0 | 0.00 | 0.00 | 0.00 | 31 | 1008.2 | |
| 20260507002901 | 13 | 0.0 | 0.0 | 0.00 | 0.00 | 0.00 | 31 | 1008.1 | |
| 20260507002356 | 13 | 0.0 | 0.0 | 0.00 | 0.00 | 0.00 | 32 | 1008.2 | |
| 20260507001852 | 12 | 0.0 | 0.0 | 0.00 | 0.00 | 0.00 | 33 | 1008.1 | |
| 20260507001347 | 12 | 0.0 | 0.0 | 0.00 | 0.00 | 0.00 | 34 | 1008.2 | |
| 20260507000843 | 12 | 0.0 | 0.0 | 0.00 | 0.00 | 0.00 | 34 | 1008.1 | |
| 20260507000338 | 13 | 0.0 | 0.0 | 0.00 | 0.00 | 0.00 | 34 | 1008.2 | |
| 20260506235834 | 13 | 0.0 | 0.0 | 0.00 | 0.00 | 0.00 | 34 | 1008.2 | |
| 20260506235330 | 13 | 0.0 | 0.0 | 0.00 | 0.00 | 0.00 | 33 | 1008.1 | |
| 20260506234826 | 13 | 0.0 | 0.0 | 0.00 | 0.00 | 0.00 | 33 | 1008.0 | |
| 20260506234321 | 13 | 0.0 | 0.0 | 0.00 | 0.00 | 0.00 | 33 | 1008.2 | |
| 20260506233816 | 13 | 0.0 | 0.0 | 0.00 | 0.00 | 0.00 | 33 | 1008.2 | |
| 20260506233313 | 13 | 0.0 | 0.0 | 0.00 | 0.00 | 0.00 | 33 | 1008.1 | |
| 20260506232709 | 13 | 0.0 | 0.0 | 0.00 | 0.00 | 0.00 | 33 | 1008.1 | |
| 20260506232106 | 13 | 0.0 | 0.0 | 0.00 | 0.00 | 0.00 | 34 | 1008.1 | |
| 20260506231503 | 13 | 225 | 4.8 | 6.4 | 0.00 | 0.00 | 0.00 | 35 | 1008.3 |
| 20260506231119 | 13 | 225 | 4.8 | 8.0 | 0.00 | 0.00 | 0.00 | 35 | 1008.2 |
| 20260506230555 | 13 | 0.0 | 0.0 | 0.00 | 0.00 | 0.00 | 34 | 1008.2 | |
| 20260506230051 | 13 | 0.0 | 0.0 | 0.00 | 0.00 | 0.00 | 34 | 1008.2 | |
| 20260506225546 | 13 | 0.0 | 0.0 | 0.00 | 0.00 | 0.00 | 34 | 1008.2 | |
| 20260506225101 | 13 | 0.0 | 0.0 | 0.00 | 0.00 | 0.00 | 34 | 1008.0 | |
| 20260506224537 | 13 | 0.0 | 0.0 | 0.00 | 0.00 | 0.00 | 34 | 1007.9 | |
| 20260506224032 | 13 | 180 | 1.6 | 3.2 | 0.00 | 0.00 | 0.00 | 34 | 1007.7 |
| 20260506223548 | 13 | 0.0 | 0.0 | 0.00 | 0.00 | 0.00 | 34 | 1007.9 | |
| 20260506223023 | 13 | 135 | 1.6 | 4.8 | 0.00 | 0.00 | 0.00 | 35 | 1007.9 |
| 20260506222519 | 13 | 0.0 | 0.0 | 0.00 | 0.00 | 0.00 | 35 | 1008.2 | |
| 20260506222015 | 13 | 0.0 | 0.0 | 0.00 | 0.00 | 0.00 | 35 | 1008.1 | |
| 20260506221412 | 13 | 0.0 | 0.0 | 0.00 | 0.00 | 0.00 | 35 | 1008.2 | |
| 20260506220808 | 13 | 0.0 | 0.0 | 0.00 | 0.00 | 0.00 | 35 | 1008.2 | |
| 20260506220205 | 14 | 0.0 | 0.0 | 0.00 | 0.00 | 0.00 | 34 | 1008.0 | |
| 20260506215701 | 14 | 0.0 | 0.0 | 0.00 | 0.00 | 0.00 | 34 | 1007.9 | |
| 20260506215155 | 14 | 0.0 | 0.0 | 0.00 | 0.00 | 0.00 | 34 | 1007.9 | |
| 20260506214650 | 14 | 0.0 | 0.0 | 0.00 | 0.00 | 0.00 | 34 | 1007.7 | |
| 20260506214146 | 14 | 0.0 | 0.0 | 0.00 | 0.00 | 0.00 | 34 | 1007.6 | |
| 20260506213639 | 14 | 0.0 | 0.0 | 0.00 | 0.00 | 0.00 | 34 | 1007.7 | |
| 20260506213134 | 14 | 0.0 | 0.0 | 0.00 | 0.00 | 0.00 | 34 | 1007.6 | |
| 20260506212650 | 14 | 0.0 | 0.0 | 0.00 | 0.00 | 0.00 | 34 | 1007.7 | |
| 20260506212125 | 14 | 0.0 | 0.0 | 0.00 | 0.00 | 0.00 | 34 | 1007.6 | |
| 20260506211640 | 13 | 0.0 | 0.0 | 0.00 | 0.00 | 0.00 | 34 | 1007.5 | |
| 20260506211115 | 13 | 0.0 | 0.0 | 0.00 | 0.00 | 0.00 | 34 | 1007.6 | |
| 20260506210612 | 13 | 0.0 | 0.0 | 0.00 | 0.00 | 0.00 | 34 | 1007.6 | |
| 20260506210009 | 13 | 0.0 | 0.0 | 0.00 | 0.00 | 0.00 | 34 | 1007.6 | |
| 20260506205406 | 13 | 0.0 | 0.0 | 0.00 | 0.00 | 0.00 | 33 | 1007.4 | |
| 20260506204821 | 13 | 0.0 | 0.0 | 0.00 | 0.00 | 0.00 | 32 | 1007.5 | |
| 20260506204418 | 14 | 0.0 | 0.0 | 0.00 | 0.00 | 0.00 | 32 | 1007.5 | |
| 20260506203853 | 14 | 0.0 | 0.0 | 0.00 | 0.00 | 0.00 | 32 | 1007.5 | |
| 20260506203349 | 14 | 0.0 | 0.0 | 0.00 | 0.00 | 0.00 | 32 | 1007.5 | |
| 20260506202844 | 15 | 0.0 | 0.0 | 0.00 | 0.00 | 0.00 | 31 | 1007.4 | |
| 20260506202339 | 15 | 0.0 | 0.0 | 0.00 | 0.00 | 0.00 | 31 | 1007.3 | |
| 20260506201955 | 15 | 0.0 | 0.0 | 0.00 | 0.00 | 0.00 | 31 | 1007.3 | |
| 20260506201350 | 15 | 180 | 3.2 | 4.8 | 0.00 | 0.00 | 0.00 | 31 | 1007.3 |
| 20260506200826 | 15 | 135 | 4.8 | 8.0 | 0.00 | 0.00 | 0.00 | 31 | 1007.3 |
| 20260506200340 | 15 | 225 | 4.8 | 8.0 | 0.00 | 0.00 | 0.00 | 31 | 1007.1 |
| 20260506195856 | 15 | 180 | 1.6 | 3.2 | 0.00 | 0.00 | 0.00 | 31 | 1007.3 |
| 20260506195312 | 15 | 180 | 3.2 | 6.4 | 0.00 | 0.00 | 0.00 | 31 | 1007.4 |
| 20260506194709 | 15 | 0.0 | 0.0 | 0.00 | 0.00 | 0.00 | 31 | 1007.3 | |
| 20260506194105 | 15 | 0.0 | 0.0 | 0.00 | 0.00 | 0.00 | 31 | 1007.3 | |
| 20260506193522 | 15 | 0.0 | 0.0 | 0.00 | 0.00 | 0.00 | 31 | 1007.2 | |
| 20260506193058 | 15 | 0.0 | 0.0 | 0.00 | 0.00 | 0.00 | 31 | 1007.2 | |
| 20260506192554 | 15 | 225 | 0.0 | 3.2 | 0.00 | 0.00 | 0.00 | 31 | 1007.1 |
| 20260506192050 | 15 | 180 | 0.0 | 4.8 | 0.00 | 0.00 | 0.00 | 31 | 1006.9 |
| 20260506191544 | 15 | 135 | 4.8 | 8.0 | 0.00 | 0.00 | 0.00 | 31 | 1006.9 |
| 20260506191041 | 15 | 225 | 4.8 | 4.8 | 0.00 | 0.00 | 0.00 | 30 | 1007.0 |
| 20260506190536 | 15 | 0.0 | 0.0 | 0.00 | 0.00 | 0.00 | 30 | 1006.9 | |
| 20260506190030 | 16 | 0.0 | 0.0 | 0.00 | 0.00 | 0.00 | 30 | 1006.8 | |
| 20260506185526 | 16 | 180 | 3.2 | 4.8 | 0.00 | 0.00 | 0.00 | 28 | 1006.8 |
| 20260506185021 | 16 | 202 | 4.8 | 4.8 | 0.00 | 0.00 | 0.00 | 26 | 1006.8 |
| 20260506184516 | 16 | 180 | 3.2 | 4.8 | 0.00 | 0.00 | 0.00 | 24 | 1006.9 |
| 20260506184033 | 16 | 180 | 4.8 | 8.0 | 0.00 | 0.00 | 0.00 | 24 | 1006.8 |
| 20260506183409 | 16 | 180 | 4.8 | 4.8 | 0.00 | 0.00 | 0.00 | 22 | 1006.8 |
| 20260506182806 | 17 | 180 | 3.2 | 6.4 | 0.00 | 0.00 | 0.00 | 20 | 1006.8 |
| 20260506182202 | 17 | 0.0 | 0.0 | 0.00 | 0.00 | 0.00 | 20 | 1006.7 | |
| 20260506181758 | 17 | 180 | 4.8 | 6.4 | 0.00 | 0.00 | 0.00 | 20 | 1006.4 |
| 20260506181254 | 17 | 225 | 6.4 | 9.7 | 0.00 | 0.00 | 0.00 | 20 | 1006.5 |
| 20260506180748 | 17 | 225 | 8.0 | 9.7 | 0.00 | 0.00 | 0.00 | 15 | 1006.5 |
| 20260506180243 | 17 | 225 | 9.7 | 12.9 | 0.00 | 0.00 | 0.00 | 15 | 1006.4 |
| 20260506175739 | 18 | 180 | 4.8 | 8.0 | 0.00 | 0.00 | 0.00 | 15 | 1006.4 |
| 20260506175235 | 18 | 225 | 9.7 | 14.5 | 0.00 | 0.00 | 0.00 | 15 | 1006.4 |
| 20260506174730 | 18 | 180 | 9.7 | 14.5 | 0.00 | 0.00 | 0.00 | 15 | 1006.4 |
| 20260506174225 | 18 | 180 | 8.0 | 12.9 | 0.00 | 0.00 | 0.00 | 15 | 1006.1 |
| 20260506173721 | 18 | 225 | 3.2 | 12.9 | 0.00 | 0.00 | 0.00 | 15 | 1006.3 |
| 20260506173216 | 18 | 202 | 9.7 | 11.3 | 0.00 | 0.00 | 0.00 | 15 | 1006.2 |
| 20260506172713 | 18 | 180 | 11.3 | 17.7 | 0.00 | 0.00 | 0.00 | 15 | 1006.3 |
| 20260506172109 | 18 | 180 | 8.0 | 11.3 | 0.00 | 0.00 | 0.00 | 15 | 1006.1 |
| 20260506171506 | 18 | 270 | 8.0 | 11.3 | 0.00 | 0.00 | 0.00 | 15 | 1006.1 |
| 20260506170902 | 18 | 180 | 4.8 | 8.0 | 0.00 | 0.00 | 0.00 | 15 | 1006.2 |
| 20260506170518 | 18 | 180 | 6.4 | 9.7 | 0.00 | 0.00 | 0.00 | 15 | 1006.3 |
| 20260506165953 | 19 | 180 | 8.0 | 9.7 | 0.00 | 0.00 | 0.00 | 15 | 1006.2 |
| 20260506165508 | 19 | 135 | 4.8 | 8.0 | 0.00 | 0.00 | 0.00 | 15 | 1006.2 |
| 20260506164944 | 19 | 180 | 4.8 | 9.7 | 0.00 | 0.00 | 0.00 | 15 | 1006.5 |
| 20260506164441 | 19 | 180 | 11.3 | 16.1 | 0.00 | 0.00 | 0.00 | 15 | 1006.4 |
| 20260506163935 | 19 | 202 | 0.0 | 1.6 | 0.00 | 0.00 | 0.00 | 15 | 1006.4 |
| 20260506163429 | 19 | 180 | 9.7 | 14.5 | 0.00 | 0.00 | 0.00 | 15 | 1006.5 |
| 20260506162925 | 19 | 225 | 4.8 | 6.4 | 0.00 | 0.00 | 0.00 | 15 | 1006.7 |
| 20260506162440 | 19 | 270 | 4.8 | 9.7 | 0.00 | 0.00 | 0.00 | 15 | 1006.7 |
| 20260506161916 | 20 | 202 | 6.4 | 14.5 | 0.00 | 0.00 | 0.00 | 19 | 1006.9 |
| 20260506161433 | 20 | 180 | 6.4 | 9.7 | 0.00 | 0.00 | 0.00 | 19 | 1006.8 |
| 20260506160809 | 20 | 180 | 4.8 | 9.7 | 0.00 | 0.00 | 0.00 | 19 | 1006.7 |
| 20260506160207 | 20 | 180 | 4.8 | 11.3 | 0.00 | 0.00 | 0.00 | 19 | 1006.6 |
| 20260506155605 | 20 | 180 | 8.0 | 14.5 | 0.00 | 0.00 | 0.00 | 19 | 1006.5 |
| 20260506155058 | 20 | 202 | 14.5 | 16.1 | 0.00 | 0.00 | 0.00 | 19 | 1006.5 |
| 20260506154553 | 21 | 270 | 9.7 | 12.9 | 0.00 | 0.00 | 0.00 | 19 | 1006.6 |
| 20260506154049 | 21 | 180 | 11.3 | 14.5 | 0.00 | 0.00 | 0.00 | 19 | 1006.7 |
| 20260506153605 | 21 | 135 | 11.3 | 14.5 | 0.00 | 0.00 | 0.00 | 19 | 1006.6 |